createdAt,value
2018-06-28T00:00:24.163Z,18.60
2018-06-28T00:02:51.358Z,18.60
2018-06-28T00:05:18.508Z,18.60
2018-06-28T00:07:45.599Z,18.60
2018-06-28T00:10:12.715Z,18.60
2018-06-28T00:12:39.831Z,18.60
2018-06-28T00:15:07.116Z,18.50
2018-06-28T00:17:34.227Z,18.40
2018-06-28T00:20:01.358Z,18.40
2018-06-28T00:22:28.479Z,18.40
2018-06-28T00:24:55.601Z,18.30
2018-06-28T00:27:22.719Z,18.30
2018-06-28T00:29:50.203Z,18.30
2018-06-28T00:32:17.313Z,18.20
2018-06-28T00:34:44.424Z,18.30
2018-06-28T00:37:11.555Z,18.30
2018-06-28T00:39:38.657Z,18.30
2018-06-28T00:42:05.776Z,18.20
2018-06-28T00:47:00.104Z,18.30
2018-06-28T00:49:27.252Z,18.30
2018-06-28T00:51:54.392Z,18.30
2018-06-28T00:54:21.515Z,18.20
2018-06-28T00:56:48.619Z,18.30
2018-06-28T00:59:15.735Z,18.30
2018-06-28T01:01:42.855Z,18.30
2018-06-28T01:06:37.131Z,18.20
2018-06-28T01:09:07.483Z,18.20
2018-06-28T01:11:34.611Z,18.10
2018-06-28T01:14:01.732Z,18.20
2018-06-28T01:16:28.917Z,18.20
2018-06-28T01:18:56.088Z,18.20
2018-06-28T01:21:23.299Z,18.20
2018-06-28T01:23:50.415Z,18.30
2018-06-28T01:26:17.523Z,18.20
2018-06-28T01:28:44.611Z,18.20
2018-06-28T01:31:11.724Z,18.30
2018-06-28T01:33:38.815Z,18.10
2018-06-28T01:36:05.947Z,18.10
2018-06-28T01:38:33.097Z,18.10
2018-06-28T01:41:00.215Z,18.00
2018-06-28T01:43:39.556Z,18.10
2018-06-28T01:46:07.043Z,18.00
2018-06-28T01:48:34.205Z,18.00
2018-06-28T01:51:01.439Z,17.90
2018-06-28T01:53:28.665Z,17.90
2018-06-28T01:55:55.863Z,18.00
2018-06-28T01:58:23.308Z,18.00
2018-06-28T02:00:50.531Z,17.90
2018-06-28T02:03:17.982Z,17.90
2018-06-28T02:05:45.648Z,17.90
2018-06-28T02:08:12.759Z,17.80
2018-06-28T02:10:39.883Z,17.80
2018-06-28T02:13:07.003Z,17.80
2018-06-28T02:15:34.914Z,17.80
2018-06-28T02:18:02.055Z,17.80
2018-06-28T02:20:29.207Z,17.80
2018-06-28T02:22:56.791Z,17.80
2018-06-28T02:25:24.107Z,17.80
2018-06-28T02:27:51.767Z,17.80
2018-06-28T02:30:18.891Z,17.70
2018-06-28T02:32:45.991Z,17.70
2018-06-28T02:35:13.139Z,17.70
2018-06-28T02:37:40.264Z,17.70
2018-06-28T02:40:07.394Z,17.70
2018-06-28T02:42:34.508Z,17.60
2018-06-28T02:45:01.731Z,17.70
2018-06-28T02:47:29.275Z,17.70
2018-06-28T02:49:56.540Z,17.60
2018-06-28T02:52:23.695Z,17.50
2018-06-28T02:54:50.831Z,17.40
2018-06-28T02:57:17.976Z,17.40
2018-06-28T02:59:45.079Z,17.40
2018-06-28T03:02:12.203Z,17.20
2018-06-28T03:04:39.307Z,17.20
2018-06-28T03:07:06.412Z,17.20
2018-06-28T03:09:33.523Z,17.20
2018-06-28T03:12:00.672Z,17.10
2018-06-28T03:14:27.806Z,17.10
2018-06-28T03:16:54.960Z,17.10
2018-06-28T03:19:22.098Z,17.00
2018-06-28T03:21:49.217Z,17.10
2018-06-28T03:24:16.385Z,17.00
2018-06-28T03:26:43.505Z,17.20
2018-06-28T03:29:10.660Z,17.10
2018-06-28T03:31:37.816Z,17.00
2018-06-28T03:34:05.011Z,17.10
2018-06-28T03:36:32.111Z,17.20
2018-06-28T03:38:59.214Z,17.10
2018-06-28T03:41:26.366Z,17.20
2018-06-28T03:43:53.509Z,17.20
2018-06-28T03:46:20.637Z,17.20
2018-06-28T03:48:47.757Z,17.20
2018-06-28T03:51:14.887Z,17.20
2018-06-28T03:53:42.036Z,17.30
2018-06-28T03:56:09.307Z,17.20
2018-06-28T03:58:36.455Z,17.20
2018-06-28T04:01:03.594Z,17.10
2018-06-28T04:05:57.849Z,17.20
2018-06-28T04:08:24.963Z,17.10
2018-06-28T04:10:52.123Z,17.10
2018-06-28T04:13:19.289Z,17.20
2018-06-28T04:15:46.395Z,17.20
2018-06-28T04:18:13.686Z,17.40
2018-06-28T04:20:40.811Z,17.40
2018-06-28T04:23:07.929Z,17.60
2018-06-28T04:25:35.027Z,17.70
2018-06-28T04:28:02.148Z,17.80
2018-06-28T04:30:29.380Z,17.80
2018-06-28T04:32:56.613Z,17.90
2018-06-28T04:35:23.784Z,18.10
2018-06-28T04:37:50.911Z,18.20
2018-06-28T04:40:18.027Z,18.30
2018-06-28T04:42:45.147Z,18.40
2018-06-28T04:45:12.300Z,18.60
2018-06-28T04:47:39.426Z,18.60
2018-06-28T04:50:06.548Z,18.80
2018-06-28T04:52:33.743Z,18.90
2018-06-28T04:55:01.372Z,19.10
2018-06-28T04:57:28.531Z,19.60
2018-06-28T05:02:22.817Z,22.70
2018-06-28T05:04:49.935Z,24.10
2018-06-28T05:07:17.063Z,25.00
2018-06-28T05:09:44.178Z,25.40
2018-06-28T05:12:11.302Z,26.00
2018-06-28T05:17:05.852Z,27.20
2018-06-28T05:19:32.913Z,27.70
2018-06-28T05:22:00.876Z,27.90
2018-06-28T05:24:28.059Z,28.40
2018-06-28T05:26:55.192Z,29.20
2018-06-28T05:29:22.324Z,29.50
2018-06-28T05:31:49.431Z,29.40
2018-06-28T05:34:16.719Z,29.40
2018-06-28T05:36:43.839Z,30.20
2018-06-28T05:39:11.368Z,30.30
2018-06-28T05:41:38.655Z,30.80
2018-06-28T05:44:05.835Z,31.20
2018-06-28T05:46:33.064Z,31.90
2018-06-28T05:49:00.556Z,31.60
2018-06-28T05:51:27.775Z,32.00
2018-06-28T05:53:54.921Z,31.00
2018-06-28T05:56:22.058Z,31.00
2018-06-28T05:58:49.383Z,32.10
2018-06-28T06:01:16.524Z,32.40
2018-06-28T06:03:43.656Z,32.30
2018-06-28T06:06:10.803Z,32.40
2018-06-28T06:08:38.739Z,33.60
2018-06-28T06:11:05.878Z,33.10
2018-06-28T06:13:32.999Z,32.50
2018-06-28T06:16:00.155Z,32.20
2018-06-28T06:18:27.319Z,32.10
2018-06-28T06:20:55.057Z,32.30
2018-06-28T06:23:22.251Z,32.90
2018-06-28T06:25:49.636Z,33.30
2018-06-28T06:28:16.771Z,33.40
2018-06-28T06:30:43.912Z,34.20
2018-06-28T06:33:11.023Z,34.50
2018-06-28T06:35:38.252Z,34.50
2018-06-28T06:38:05.408Z,34.70
2018-06-28T06:40:32.551Z,35.20
2018-06-28T06:42:59.732Z,34.90
2018-06-28T06:48:00.771Z,35.00
2018-06-28T06:50:27.948Z,36.00
2018-06-28T06:52:55.159Z,34.90
2018-06-28T06:55:22.275Z,35.10
2018-06-28T06:57:49.403Z,35.40
2018-06-28T07:00:16.515Z,35.90
2018-06-28T07:05:10.803Z,36.40
2018-06-28T07:07:37.919Z,35.90
2018-06-28T07:10:05.053Z,37.00
2018-06-28T07:12:32.232Z,36.40
2018-06-28T07:14:59.399Z,36.10
2018-06-28T07:17:26.580Z,36.00
2018-06-28T07:19:53.703Z,36.60
2018-06-28T07:22:20.833Z,36.50
2018-06-28T07:24:48.023Z,35.50
2018-06-28T07:27:15.156Z,35.50
2018-06-28T07:29:42.299Z,36.20
2018-06-28T07:32:09.433Z,37.40
2018-06-28T07:34:36.540Z,37.00
2018-06-28T07:37:03.974Z,36.60
2018-06-28T07:39:31.187Z,36.70
2018-06-28T07:41:58.323Z,37.40
2018-06-28T07:44:25.560Z,36.70
2018-06-28T07:46:52.729Z,37.10
2018-06-28T07:49:19.856Z,36.20
2018-06-28T07:51:46.993Z,35.90
2018-06-28T07:54:14.165Z,35.60
2018-06-28T07:56:41.301Z,36.60
2018-06-28T07:59:08.452Z,36.10
2018-06-28T08:01:35.595Z,36.10
2018-06-28T08:04:02.767Z,35.80
2018-06-28T08:06:29.993Z,35.50
2018-06-28T08:08:57.185Z,36.20
2018-06-28T08:11:24.428Z,36.20
2018-06-28T08:13:51.571Z,36.00
2018-06-28T08:16:18.701Z,37.10
2018-06-28T08:18:45.879Z,36.00
2018-06-28T08:21:13.023Z,36.60
2018-06-28T08:23:40.143Z,37.30
2018-06-28T08:26:07.283Z,36.80
2018-06-28T08:28:34.446Z,36.10
2018-06-28T08:31:01.642Z,35.60
2018-06-28T08:33:28.843Z,36.50
2018-06-28T08:35:56.952Z,36.40
2018-06-28T08:38:24.081Z,35.50
2018-06-28T08:40:51.257Z,36.50
2018-06-28T08:43:18.474Z,36.40
2018-06-28T08:45:45.556Z,36.30
2018-06-28T08:48:12.701Z,36.40
2018-06-28T08:50:39.863Z,36.30
2018-06-28T08:53:06.999Z,36.50
2018-06-28T08:55:34.164Z,36.80
2018-06-28T08:58:01.453Z,36.80
2018-06-28T09:00:28.499Z,37.20
2018-06-28T09:02:55.762Z,36.90
2018-06-28T09:05:22.933Z,35.90
2018-06-28T09:07:50.072Z,37.30
2018-06-28T09:10:17.202Z,36.30
2018-06-28T09:12:44.384Z,36.10
2018-06-28T09:15:11.558Z,34.80
2018-06-28T09:17:38.664Z,34.70
2018-06-28T09:20:06.016Z,34.70
2018-06-28T09:22:33.191Z,34.60
2018-06-28T09:25:00.359Z,35.30
2018-06-28T09:27:27.730Z,35.50
2018-06-28T09:29:54.934Z,35.30
2018-06-28T09:32:22.103Z,34.30
2018-06-28T09:34:49.228Z,34.20
2018-06-28T09:37:16.382Z,33.60
2018-06-28T09:39:43.516Z,32.80
2018-06-28T09:42:10.664Z,31.90
2018-06-28T09:44:37.827Z,31.70
2018-06-28T09:47:04.972Z,30.30
2018-06-28T09:49:32.253Z,28.20
2018-06-28T09:51:59.513Z,27.40
2018-06-28T09:54:26.691Z,27.40
2018-06-28T09:56:53.848Z,27.40
2018-06-28T09:59:20.971Z,26.80
2018-06-28T10:04:15.290Z,26.40
2018-06-28T10:09:09.871Z,26.20
2018-06-28T10:11:37.007Z,26.20
2018-06-28T10:14:04.181Z,26.30
2018-06-28T10:16:31.327Z,26.50
2018-06-28T10:18:58.533Z,26.60
2018-06-28T10:21:31.300Z,26.40
2018-06-28T10:23:58.480Z,26.30
2018-06-28T10:26:25.729Z,26.70
2018-06-28T10:28:53.007Z,26.40
2018-06-28T10:31:20.125Z,26.60
2018-06-28T10:33:47.252Z,26.70
2018-06-28T10:36:14.392Z,26.80
2018-06-28T10:38:41.550Z,26.70
2018-06-28T10:41:08.967Z,26.70
2018-06-28T10:43:36.102Z,27.10
2018-06-28T10:46:03.231Z,27.50
2018-06-28T10:48:30.417Z,27.20
2018-06-28T10:50:57.592Z,27.30
2018-06-28T10:53:24.739Z,27.60
2018-06-28T10:55:51.878Z,27.50
2018-06-28T10:58:19.006Z,27.20
2018-06-28T11:00:46.129Z,27.50
2018-06-28T11:03:13.252Z,26.90
2018-06-28T11:08:07.575Z,26.50
2018-06-28T11:10:34.703Z,26.90
2018-06-28T11:13:01.853Z,26.70
2018-06-28T11:15:29.034Z,26.80
2018-06-28T11:17:56.317Z,26.90
2018-06-28T11:20:23.443Z,27.20
2018-06-28T11:22:50.572Z,27.30
2018-06-28T11:27:44.847Z,27.00
2018-06-28T11:30:12.000Z,27.10
2018-06-28T11:32:39.120Z,27.00
2018-06-28T11:35:06.327Z,27.40
2018-06-28T11:37:33.683Z,27.20
2018-06-28T11:40:00.879Z,27.20
2018-06-28T11:42:28.055Z,27.60
2018-06-28T11:44:55.224Z,27.60
2018-06-28T11:47:22.347Z,27.60
2018-06-28T11:49:49.482Z,26.90
2018-06-28T11:52:16.659Z,26.80
2018-06-28T11:54:43.759Z,27.00
2018-06-28T11:57:10.904Z,27.30
2018-06-28T11:59:38.037Z,27.40
2018-06-28T12:02:05.171Z,27.70
2018-06-28T12:04:32.376Z,28.10
2018-06-28T12:06:59.578Z,27.80
2018-06-28T12:09:26.750Z,27.60
2018-06-28T12:11:53.935Z,27.00
2018-06-28T12:16:48.296Z,27.40
2018-06-28T12:19:15.442Z,27.80
2018-06-28T12:21:42.617Z,28.00
2018-06-28T12:24:09.787Z,28.20
2018-06-28T12:26:37.047Z,28.00
2018-06-28T12:29:04.217Z,28.00
2018-06-28T12:31:31.408Z,27.70
2018-06-28T12:33:58.573Z,27.30
2018-06-28T12:36:25.762Z,27.10
2018-06-28T12:38:52.916Z,27.30
2018-06-28T12:41:20.039Z,27.20
2018-06-28T12:43:47.193Z,27.30
2018-06-28T12:46:14.339Z,27.60
2018-06-28T12:48:41.476Z,27.70
2018-06-28T12:53:42.695Z,27.90
2018-06-28T12:56:17.159Z,27.40
2018-06-28T12:58:44.287Z,27.30
2018-06-28T13:01:11.438Z,27.40
2018-06-28T13:03:38.563Z,27.60
2018-06-28T13:06:05.691Z,28.10
2018-06-28T13:08:32.843Z,28.30
2018-06-28T13:11:00.040Z,28.60
2018-06-28T13:13:27.237Z,28.70
2018-06-28T13:15:54.419Z,28.40
2018-06-28T13:18:21.518Z,28.40
2018-06-28T13:20:48.643Z,28.60
2018-06-28T13:23:15.816Z,28.40
2018-06-28T13:25:42.920Z,28.10
2018-06-28T13:28:10.036Z,27.90
2018-06-28T13:30:37.298Z,27.70
2018-06-28T13:33:04.651Z,27.60
2018-06-28T13:35:31.829Z,27.50
2018-06-28T13:37:58.992Z,27.50
2018-06-28T13:40:26.135Z,27.40
2018-06-28T13:42:53.259Z,27.80
2018-06-28T13:45:20.394Z,27.90
2018-06-28T13:47:47.558Z,27.70
2018-06-28T13:50:14.671Z,27.60
2018-06-28T13:52:41.835Z,27.60
2018-06-28T13:55:08.974Z,27.90
2018-06-28T13:57:36.193Z,28.50
2018-06-28T14:00:03.580Z,28.50
2018-06-28T14:02:30.772Z,28.30
2018-06-28T14:04:57.941Z,28.20
2018-06-28T14:07:25.074Z,27.90
2018-06-28T14:09:52.195Z,27.80
2018-06-28T14:12:19.370Z,27.60
2018-06-28T14:14:46.442Z,27.50
2018-06-28T14:17:13.574Z,27.10
2018-06-28T14:19:40.678Z,27.10
2018-06-28T14:22:07.821Z,27.40
2018-06-28T14:24:34.935Z,27.50
2018-06-28T14:27:02.072Z,27.60
2018-06-28T14:29:29.410Z,27.50
2018-06-28T14:31:56.615Z,27.70
2018-06-28T14:34:23.734Z,27.80
2018-06-28T14:36:50.890Z,27.80
2018-06-28T14:39:18.131Z,27.80
2018-06-28T14:41:45.303Z,27.90
2018-06-28T14:44:12.339Z,27.80
2018-06-28T14:46:39.451Z,27.70
2018-06-28T14:49:06.558Z,27.80
2018-06-28T14:51:33.668Z,27.80
2018-06-28T14:54:00.810Z,27.70
2018-06-28T14:56:28.023Z,27.80
2018-06-28T14:58:55.211Z,28.00
2018-06-28T15:01:22.482Z,28.40
2018-06-28T15:03:49.590Z,28.60
2018-06-28T15:06:16.725Z,28.60
2018-06-28T15:08:43.847Z,28.90
2018-06-28T15:11:10.997Z,28.70
2018-06-28T15:13:38.156Z,28.30
2018-06-28T15:18:32.510Z,27.70
2018-06-28T15:20:59.857Z,27.50
2018-06-28T15:23:27.216Z,27.30
2018-06-28T15:25:54.453Z,27.00
2018-06-28T15:28:22.304Z,26.90
2018-06-28T15:30:49.458Z,26.80
2018-06-28T15:33:16.695Z,26.80
2018-06-28T15:35:43.749Z,26.90
2018-06-28T15:38:10.924Z,26.80
2018-06-28T15:40:38.136Z,27.00
2018-06-28T15:43:05.279Z,27.00
2018-06-28T15:45:32.965Z,27.10
2018-06-28T15:48:00.216Z,27.00
2018-06-28T15:50:27.450Z,27.10
2018-06-28T15:52:54.768Z,27.00
2018-06-28T15:55:21.956Z,27.20
2018-06-28T15:57:49.323Z,27.10
2018-06-28T16:00:16.489Z,27.20
2018-06-28T16:02:43.676Z,27.20
2018-06-28T16:05:10.859Z,27.10
2018-06-28T16:07:38.015Z,27.10
2018-06-28T16:10:05.156Z,27.40
2018-06-28T16:12:32.484Z,27.30
2018-06-28T16:14:59.749Z,27.50
2018-06-28T16:17:26.926Z,27.50
2018-06-28T16:19:54.194Z,27.50
2018-06-28T16:22:21.347Z,27.50
2018-06-28T16:24:48.474Z,27.60
2018-06-28T16:27:15.638Z,27.60
2018-06-28T16:29:42.794Z,27.60
2018-06-28T16:32:09.939Z,27.40
2018-06-28T16:34:37.119Z,27.00
2018-06-28T16:37:04.368Z,26.80
2018-06-28T16:39:31.650Z,26.70
2018-06-28T16:41:58.922Z,26.60
2018-06-28T16:44:26.157Z,26.70
2018-06-28T16:46:53.330Z,26.70
2018-06-28T16:49:20.505Z,26.70
2018-06-28T16:51:47.659Z,26.70
2018-06-28T16:54:14.806Z,26.70
2018-06-28T16:56:42.015Z,26.80
2018-06-28T16:59:09.195Z,26.80
2018-06-28T17:01:36.359Z,26.80
2018-06-28T17:04:03.594Z,26.70
2018-06-28T17:06:30.746Z,26.70
2018-06-28T17:08:57.995Z,26.70
2018-06-28T17:11:25.202Z,26.70
2018-06-28T17:13:52.469Z,26.80
2018-06-28T17:16:19.607Z,26.60
2018-06-28T17:18:46.769Z,26.50
2018-06-28T17:21:13.932Z,26.50
2018-06-28T17:23:41.146Z,26.40
2018-06-28T17:26:08.328Z,26.30
2018-06-28T17:28:35.448Z,26.10
2018-06-28T17:31:02.622Z,26.10
2018-06-28T17:33:29.860Z,26.00
2018-06-28T17:35:57.078Z,25.90
2018-06-28T17:38:24.444Z,25.90
2018-06-28T17:40:52.021Z,25.80
2018-06-28T17:45:53.429Z,25.60
2018-06-28T17:48:20.598Z,25.50
2018-06-28T17:53:14.908Z,25.50
2018-06-28T17:55:42.066Z,25.50
2018-06-28T17:58:09.230Z,25.50
2018-06-28T18:00:36.401Z,25.50
2018-06-28T18:03:03.574Z,25.60
2018-06-28T18:07:58.465Z,25.70
2018-06-28T18:10:25.723Z,25.70
2018-06-28T18:12:52.983Z,25.80
2018-06-28T18:15:20.087Z,25.80
2018-06-28T18:17:47.341Z,25.70
2018-06-28T18:20:14.448Z,25.60
2018-06-28T18:22:41.607Z,25.70
2018-06-28T18:25:08.799Z,25.60
2018-06-28T18:27:35.939Z,25.60
2018-06-28T18:30:03.537Z,25.60
2018-06-28T18:32:30.735Z,25.60
2018-06-28T18:34:58.142Z,25.50
2018-06-28T18:37:25.419Z,25.50
2018-06-28T18:39:53.079Z,25.50
2018-06-28T18:42:20.285Z,25.40
2018-06-28T18:44:47.411Z,25.40
2018-06-28T18:47:14.663Z,25.30
2018-06-28T18:52:09.003Z,25.20
2018-06-28T18:54:36.130Z,25.10
2018-06-28T18:57:03.312Z,25.00
2018-06-28T18:59:30.517Z,24.90
2018-06-28T19:01:57.767Z,24.80
2018-06-28T19:04:24.940Z,24.80
2018-06-28T19:06:52.178Z,24.70
2018-06-28T19:09:19.303Z,24.60
2018-06-28T19:11:46.446Z,24.60
2018-06-28T19:14:19.662Z,24.50
2018-06-28T19:16:52.472Z,24.40
2018-06-28T19:19:19.591Z,24.40
2018-06-28T19:21:52.314Z,24.30
2018-06-28T19:24:19.451Z,24.30
2018-06-28T19:26:46.565Z,24.20
2018-06-28T19:29:19.386Z,24.20
2018-06-28T19:34:19.462Z,24.20
2018-06-28T19:36:46.628Z,24.20
2018-06-28T19:39:19.558Z,24.30
2018-06-28T19:41:52.391Z,24.30
2018-06-28T19:44:19.523Z,24.20
2018-06-28T19:46:46.696Z,24.20
2018-06-28T19:49:19.741Z,24.20
2018-06-28T19:51:52.677Z,24.20
2018-06-28T19:54:19.937Z,24.30
2018-06-28T19:56:47.078Z,24.20
2018-06-28T19:59:14.389Z,24.00
2018-06-28T20:01:47.380Z,24.10
2018-06-28T20:04:14.591Z,24.10
2018-06-28T20:06:43.015Z,24.10
2018-06-28T20:09:10.663Z,24.10
2018-06-28T20:11:38.181Z,24.10
2018-06-28T20:14:11.002Z,24.00
2018-06-28T20:16:43.983Z,24.00
2018-06-28T20:19:16.825Z,24.10
2018-06-28T20:21:44.268Z,24.10
2018-06-28T20:24:11.425Z,24.10
2018-06-28T20:26:44.210Z,24.00
2018-06-28T20:29:17.119Z,24.00
2018-06-28T20:31:50.064Z,24.00
2018-06-28T20:34:17.221Z,24.00
2018-06-28T20:36:44.347Z,23.90
2018-06-28T20:39:11.483Z,24.00
2018-06-28T20:41:38.631Z,24.00
2018-06-28T20:44:06.121Z,24.00
2018-06-28T20:46:33.372Z,24.00
2018-06-28T20:49:00.611Z,24.00
2018-06-28T20:53:55.087Z,24.00
2018-06-28T20:56:22.235Z,23.90
2018-06-28T20:58:49.394Z,23.90
2018-06-28T21:01:16.554Z,23.90
2018-06-28T21:03:43.936Z,23.90
2018-06-28T21:06:11.487Z,23.90
2018-06-28T21:08:38.904Z,23.90
2018-06-28T21:11:06.444Z,23.80
2018-06-28T21:13:33.658Z,23.90
2018-06-28T21:16:00.916Z,23.90
2018-06-28T21:20:55.617Z,23.80
2018-06-28T21:23:23.230Z,23.80
2018-06-28T21:25:50.418Z,23.80
2018-06-28T21:33:11.898Z,23.70
2018-06-28T21:35:39.034Z,23.80
2018-06-28T21:38:06.411Z,23.80
2018-06-28T21:40:33.585Z,23.70
2018-06-28T21:43:00.767Z,23.70
2018-06-28T21:45:27.968Z,23.70
2018-06-28T21:47:55.153Z,23.70
2018-06-28T21:50:22.366Z,23.70
2018-06-28T21:52:49.741Z,23.60
2018-06-28T21:55:16.950Z,23.60
2018-06-28T21:57:44.079Z,23.50
2018-06-28T22:00:27.990Z,23.40
2018-06-28T22:02:55.294Z,23.50
2018-06-28T22:05:22.447Z,23.40
2018-06-28T22:07:50.357Z,23.30
2018-06-28T22:10:17.468Z,23.30
2018-06-28T22:12:44.726Z,23.20
2018-06-28T22:15:16.577Z,23.20
2018-06-28T22:17:43.799Z,23.20
2018-06-28T22:20:10.948Z,23.20
2018-06-28T22:25:05.315Z,23.10
2018-06-28T22:27:32.482Z,23.00
2018-06-28T22:29:59.652Z,22.90
2018-06-28T22:32:26.770Z,22.90
2018-06-28T22:34:53.903Z,22.90
2018-06-28T22:37:21.071Z,22.90
2018-06-28T22:44:42.591Z,22.60
2018-06-28T22:47:09.946Z,22.40
2018-06-28T22:49:37.194Z,22.30
2018-06-28T22:52:04.455Z,22.30
2018-06-28T22:54:31.593Z,22.30
2018-06-28T22:56:58.763Z,22.30
2018-06-28T22:59:25.990Z,22.30
2018-06-28T23:01:53.164Z,22.30
2018-06-28T23:04:20.313Z,22.40
2018-06-28T23:06:47.511Z,22.30
2018-06-28T23:09:14.667Z,22.50
2018-06-28T23:11:42.044Z,22.60
2018-06-28T23:14:09.241Z,22.60
2018-06-28T23:16:36.456Z,22.60
2018-06-28T23:19:03.837Z,22.50
2018-06-28T23:21:31.004Z,22.40
2018-06-28T23:23:58.119Z,22.40
2018-06-28T23:26:25.236Z,22.50
2018-06-28T23:28:52.409Z,22.30
2018-06-28T23:31:19.575Z,22.20
2018-06-28T23:36:13.995Z,21.90
2018-06-28T23:38:41.207Z,21.80
2018-06-28T23:41:08.367Z,21.70
2018-06-28T23:43:35.544Z,21.70
2018-06-28T23:46:02.843Z,21.80
2018-06-28T23:48:30.019Z,21.80
2018-06-28T23:50:57.212Z,21.90
2018-06-28T23:53:24.381Z,21.90
2018-06-28T23:55:51.600Z,21.90
2018-06-28T23:58:18.892Z,21.90
